Time;durP1;ratioP1;P1;durP2;ratioP2;P2;SDS_P1;SDS_P2;PMS_P1;PMS_P2;Temp;Humidity;BMP_temperature;BMP_pressure;BME280_temperature;BME280_humidity;BME280_pressure;Samples;Min_cycle;Max_cycle;Signal;HPM_P1;HPM_P2
2022/07/02 00:01:08;;;;;;;16.63;12.47;;;;;;;13.18;100.00;102132.25;7394208;19;20427;-59
2022/07/02 00:03:39;;;;;;;21.57;12.97;;;;;;;13.23;100.00;102125.63;7384860;19;20426;-60
2022/07/02 00:06:09;;;;;;;20.47;13.97;;;;;;;13.20;100.00;102112.50;7391522;19;20430;-60
2022/07/02 00:08:45;;;;;;;19.67;14.10;;;;;;;13.13;100.00;102097.44;7384410;19;20427;-60
2022/07/02 00:11:16;;;;;;;16.83;13.47;;;;;;;13.15;100.00;102090.63;7388573;19;20422;-60
2022/07/02 00:13:46;;;;;;;23.77;16.30;;;;;;;13.42;100.00;102091.16;7386405;19;20757;-60
2022/07/02 00:16:15;;;;;;;23.87;15.00;;;;;;;13.45;100.00;102090.44;7391069;19;20388;-60
2022/07/02 00:18:45;;;;;;;24.87;15.07;;;;;;;13.66;100.00;102088.09;7384185;19;20407;-60
2022/07/02 00:21:15;;;;;;;32.73;21.23;;;;;;;13.72;100.00;102067.63;7389697;19;20406;-60
2022/07/02 00:23:48;;;;;;;29.60;17.50;;;;;;;13.73;100.00;102063.31;7384037;19;20680;-60
2022/07/02 00:26:20;;;;;;;27.53;18.20;;;;;;;13.91;100.00;102051.25;7392875;19;20391;-60
2022/07/02 00:28:57;;;;;;;21.97;13.90;;;;;;;14.03;100.00;102024.13;7382034;19;20424;-60
2022/07/02 00:31:27;;;;;;;18.10;11.43;;;;;;;14.26;100.00;102003.56;7390211;19;20434;-60
2022/07/02 00:33:58;;;;;;;17.33;10.33;;;;;;;13.79;100.00;101967.66;7384449;19;20430;-60
2022/07/02 00:36:28;;;;;;;15.57;10.80;;;;;;;13.50;100.00;101956.78;7391695;19;20395;-60
2022/07/02 00:39:00;;;;;;;16.73;11.10;;;;;;;13.44;100.00;101954.72;7384703;19;20421;-60
2022/07/02 00:41:30;;;;;;;15.33;10.50;;;;;;;13.32;100.00;101954.13;7389801;19;20425;-60
2022/07/02 00:44:00;;;;;;;18.47;12.17;;;;;;;13.28;100.00;101952.22;7386963;19;20447;-60
2022/07/02 00:46:30;;;;;;;16.30;12.43;;;;;;;13.21;100.00;101938.94;7391264;19;20399;-60
2022/07/02 00:49:01;;;;;;;18.73;11.27;;;;;;;13.24;100.00;101946.00;7384397;19;20424;-60
2022/07/02 00:51:31;;;;;;;23.67;13.00;;;;;;;13.15;100.00;101942.91;7391015;19;21053;-60
2022/07/02 00:54:04;;;;;;;15.33;11.20;;;;;;;13.14;100.00;101947.25;7386080;19;20776;-60
2022/07/02 00:56:34;;;;;;;18.50;11.47;;;;;;;12.95;100.00;101930.75;7392035;19;20390;-60
2022/07/02 00:59:04;;;;;;;21.43;13.40;;;;;;;12.88;100.00;101940.72;7383895;19;20417;-60
2022/07/02 01:01:34;;;;;;;16.83;11.87;;;;;;;12.79;100.00;101944.63;7390872;19;20413;-60
2022/07/02 01:04:04;;;;;;;20.87;13.23;;;;;;;12.71;100.00;101958.84;7382008;19;20461;-60
2022/07/02 01:06:35;;;;;;;22.40;13.47;;;;;;;12.70;100.00;101962.25;7392448;19;20403;-60
2022/07/02 01:11:50;;;;;;;23.33;12.00;;;;;;;12.86;100.00;101974.31;7385423;19;20412;-60
2022/07/02 01:14:20;;;;;;;23.00;11.10;;;;;;;12.80;100.00;101974.91;7391238;19;20393;-60
2022/07/02 01:16:50;;;;;;;19.57;11.70;;;;;;;12.80;100.00;101974.00;7386174;19;20908;-60
2022/07/02 01:19:21;;;;;;;17.10;12.67;;;;;;;12.73;100.00;101967.63;7390186;19;20429;-60
2022/07/02 01:22:16;;;;;;;16.03;10.83;;;;;;;12.58;100.00;101967.69;7384650;19;20411;-60
2022/07/02 01:24:47;;;;;;;17.80;10.73;;;;;;;12.52;100.00;101957.03;7399327;19;20397;-60
2022/07/02 01:27:17;;;;;;;17.07;11.37;;;;;;;12.53;100.00;101970.06;7383136;19;20426;-60
2022/07/02 01:29:47;;;;;;;19.33;12.13;;;;;;;12.41;100.00;101974.56;7398688;19;20400;-60
2022/07/02 01:32:16;;;;;;;29.43;12.13;;;;;;;12.26;100.00;101979.81;7389814;19;20470;-60
2022/07/02 01:34:48;;;;;;;17.20;10.97;;;;;;;12.23;100.00;101989.97;7399021;19;20390;-60
2022/07/02 01:37:22;;;;;;;13.83;10.53;;;;;;;12.26;100.00;102006.56;7392342;19;20430;-60
2022/07/02 01:39:52;;;;;;;14.63;10.67;;;;;;;12.21;100.00;102012.28;7398417;19;20409;-60
2022/07/02 01:42:21;;;;;;;16.93;10.87;;;;;;;12.20;100.00;102016.56;7392684;19;20424;-60
2022/07/02 01:44:51;;;;;;;16.93;10.30;;;;;;;12.19;100.00;102016.50;7398755;19;20408;-60
2022/07/02 01:47:21;;;;;;;14.70;10.40;;;;;;;12.18;100.00;102023.38;7395231;19;20425;-60
2022/07/02 01:49:50;;;;;;;18.33;10.80;;;;;;;12.14;100.00;102011.06;7398214;19;20384;-60
2022/07/02 01:52:23;;;;;;;17.90;10.40;;;;;;;12.14;100.00;102011.97;7392410;19;20422;-60
2022/07/02 01:54:52;;;;;;;17.50;11.07;;;;;;;12.13;100.00;102019.63;7398608;19;20448;-59
2022/07/02 01:57:22;;;;;;;16.83;11.27;;;;;;;12.07;100.00;102021.88;7391659;19;20415;-60
2022/07/02 01:59:51;;;;;;;18.43;11.40;;;;;;;12.02;100.00;102032.81;7397769;19;20815;-60
2022/07/02 02:02:21;;;;;;;16.60;11.03;;;;;;;11.97;100.00;102028.19;7391749;19;20782;-60
2022/07/02 02:04:51;;;;;;;16.07;10.40;;;;;;;11.88;100.00;102033.72;7399846;19;20407;-60
2022/07/02 02:07:23;;;;;;;18.77;12.17;;;;;;;11.85;100.00;102036.16;7392113;19;20507;-61
2022/07/02 02:09:53;;;;;;;15.70;11.20;;;;;;;11.85;100.00;102043.91;7397408;19;20946;-60
2022/07/02 02:12:22;;;;;;;19.30;12.50;;;;;;;11.84;100.00;102039.56;7391672;19;20419;-60
2022/07/02 02:14:52;;;;;;;15.33;10.80;;;;;;;11.87;100.00;102042.31;7398034;19;20399;-60
2022/07/02 02:17:22;;;;;;;13.70;10.47;;;;;;;11.87;100.00;102037.13;7392014;19;20417;-60
2022/07/02 02:19:51;;;;;;;15.03;9.77;;;;;;;11.84;100.00;102036.97;7397124;19;20727;-61
2022/07/02 02:22:24;;;;;;;16.03;10.60;;;;;;;11.83;100.00;102040.31;7389759;19;20414;-60
2022/07/02 02:24:53;;;;;;;12.93;10.00;;;;;;;11.82;100.00;102044.63;7395709;19;20470;-60
2022/07/02 02:27:23;;;;;;;15.40;11.10;;;;;;;11.82;100.00;102038.56;7383789;19;20407;-60
2022/07/02 02:29:52;;;;;;;19.53;10.30;;;;;;;11.82;100.00;102033.38;7396414;19;20394;-60
2022/07/02 02:32:22;;;;;;;14.03;10.37;;;;;;;11.83;100.00;102032.56;7390121;19;20490;-60
2022/07/02 02:34:51;;;;;;;13.97;9.87;;;;;;;11.85;100.00;102029.28;7396752;19;20384;-60
2022/07/02 02:37:23;;;;;;;16.87;10.83;;;;;;;12.04;100.00;102045.00;7390318;19;20446;-60
2022/07/02 02:39:53;;;;;;;34.20;11.70;;;;;;;11.93;100.00;102037.47;7396315;19;20379;-60
2022/07/02 02:42:22;;;;;;;16.70;10.57;;;;;;;11.95;100.00;102035.84;7389889;19;20510;-60
2022/07/02 02:44:52;;;;;;;28.87;18.33;;;;;;;12.04;100.00;102034.66;7394863;19;20383;-60
2022/07/02 02:47:22;;;;;;;23.00;12.03;;;;;;;12.00;100.00;102026.66;7388690;19;20425;-60
2022/07/02 02:49:52;;;;;;;28.60;17.43;;;;;;;11.87;100.00;102011.25;7396072;19;20389;-60
2022/07/02 02:52:24;;;;;;;16.87;9.70;;;;;;;11.75;100.00;101998.53;7390388;19;20441;-60
2022/07/02 02:54:53;;;;;;;22.80;10.50;;;;;;;11.70;100.00;101994.81;7396567;19;20381;-60
2022/07/02 02:57:23;;;;;;;17.00;9.10;;;;;;;11.73;100.00;101985.53;7389674;19;20410;-60
2022/07/02 02:59:52;;;;;;;15.33;9.40;;;;;;;11.71;100.00;101968.13;7395693;19;20391;-60
2022/07/02 03:02:22;;;;;;;15.23;9.77;;;;;;;11.72;100.00;101965.66;7388963;19;20420;-60
2022/07/02 03:04:51;;;;;;;15.43;9.23;;;;;;;11.73;100.00;101957.09;7394517;19;20387;-60
2022/07/02 03:07:23;;;;;;;15.50;10.83;;;;;;;11.74;100.00;101948.53;7390315;19;20440;-60
2022/07/02 03:09:53;;;;;;;17.47;9.97;;;;;;;11.76;100.00;101946.03;7395367;19;20398;-60
2022/07/02 03:12:26;;;;;;;12.30;9.03;;;;;;;11.73;100.00;101941.56;7390371;19;20411;-60
2022/07/02 03:14:56;;;;;;;10.23;8.47;;;;;;;11.73;100.00;101930.31;7395710;19;20392;-59
2022/07/02 03:17:25;;;;;;;15.80;9.60;;;;;;;11.75;100.00;101933.91;7389250;19;20419;-59
2022/07/02 03:19:55;;;;;;;13.00;8.80;;;;;;;11.69;100.00;101933.56;7394977;19;20910;-59
2022/07/02 03:22:27;;;;;;;13.50;9.20;;;;;;;11.68;100.00;101924.00;7389203;19;20432;-60
2022/07/02 03:24:56;;;;;;;18.77;13.33;;;;;;;11.69;100.00;101929.28;7393771;19;20393;-60
2022/07/02 03:27:27;;;;;;;29.90;15.50;;;;;;;11.84;100.00;101934.41;7386990;19;20414;-60
2022/07/02 03:29:56;;;;;;;25.33;14.13;;;;;;;11.89;100.00;101932.06;7394432;19;20388;-60
2022/07/02 03:32:28;;;;;;;20.83;13.83;;;;;;;11.91;100.00;101920.13;7388329;19;20438;-60
2022/07/02 03:34:58;;;;;;;14.17;10.50;;;;;;;12.00;100.00;101920.63;7395392;19;20412;-60
2022/07/02 03:37:31;;;;;;;16.83;9.67;;;;;;;11.92;100.00;101913.25;7388816;19;20431;-60
2022/07/02 03:40:00;;;;;;;11.00;7.90;;;;;;;11.79;100.00;101898.78;7394455;19;20392;-60
2022/07/02 03:42:32;;;;;;;12.17;8.60;;;;;;;11.78;100.00;101886.66;7388958;19;20412;-60
2022/07/02 03:45:02;;;;;;;11.03;8.00;;;;;;;11.77;100.00;101874.50;7391033;19;20399;-60
2022/07/02 03:47:31;;;;;;;12.90;8.13;;;;;;;11.74;100.00;101865.78;7388716;19;20421;-60
2022/07/02 03:50:01;;;;;;;15.00;9.40;;;;;;;11.74;100.00;101859.72;7393796;19;20391;-60
2022/07/02 03:52:33;;;;;;;11.47;8.50;;;;;;;11.77;100.00;101856.41;7389280;19;20585;-60
2022/07/02 03:55:02;;;;;;;9.53;8.20;;;;;;;11.74;100.00;101839.03;7394817;19;20384;-60
2022/07/02 03:57:32;;;;;;;11.83;8.10;;;;;;;11.72;100.00;101835.47;7389106;19;20418;-60
2022/07/02 04:00:02;;;;;;;14.07;8.33;;;;;;;11.73;100.00;101826.91;7393542;19;20764;-60
2022/07/02 04:02:31;;;;;;;16.90;8.20;;;;;;;11.78;100.00;101811.66;7388088;19;20963;-60
2022/07/02 04:05:01;;;;;;;11.10;8.57;;;;;;;11.80;100.00;101808.34;7393186;19;20387;-60
2022/07/02 04:07:33;;;;;;;12.03;8.40;;;;;;;11.86;100.00;101810.38;7387680;19;21053;-60
2022/07/02 04:10:03;;;;;;;11.90;8.50;;;;;;;11.86;100.00;101800.03;7393339;19;20391;-60
2022/07/02 04:12:32;;;;;;;11.40;8.27;;;;;;;11.88;100.00;101801.00;7387997;19;20949;-60
2022/07/02 04:15:02;;;;;;;14.93;8.27;;;;;;;11.92;100.00;101791.69;7394036;19;20388;-60
2022/07/02 04:17:32;;;;;;;13.07;8.23;;;;;;;11.94;100.00;101790.97;7387027;19;20414;-60
2022/07/02 04:20:01;;;;;;;17.93;8.33;;;;;;;11.96;100.00;101793.66;7393005;19;20943;-60
2022/07/02 04:22:33;;;;;;;13.33;9.20;;;;;;;12.01;100.00;101790.47;7387463;19;20859;-60
2022/07/02 04:25:03;;;;;;;14.80;8.43;;;;;;;12.06;100.00;101784.72;7392865;19;20384;-60
2022/07/02 04:27:32;;;;;;;12.47;9.13;;;;;;;12.11;100.00;101781.53;7384848;19;20428;-60
2022/07/02 04:30:02;;;;;;;20.47;9.80;;;;;;;12.15;100.00;101777.41;7397335;19;20398;-59
2022/07/02 04:32:37;;;;;;;15.80;10.67;;;;;;;12.22;100.00;101776.94;7386967;19;20428;-60
2022/07/02 04:35:07;;;;;;;19.00;9.57;;;;;;;12.31;100.00;101767.84;7393799;19;20412;-59
2022/07/02 04:37:40;;;;;;;8.70;7.50;;;;;;;12.36;100.00;101767.25;7386918;19;20927;-59
2022/07/02 04:40:10;;;;;;;16.13;8.87;;;;;;;12.41;100.00;101755.44;7392474;19;20400;-60
2022/07/02 04:42:40;;;;;;;16.90;8.23;;;;;;;12.48;100.00;101754.06;7386514;19;20515;-60
2022/07/02 04:45:10;;;;;;;16.23;8.53;;;;;;;12.55;100.00;101740.63;7391945;19;20388;-60
2022/07/02 04:47:40;;;;;;;13.57;8.20;;;;;;;12.62;100.00;101736.63;7386963;19;20415;-60
2022/07/02 04:50:11;;;;;;;16.17;10.50;;;;;;;12.67;100.00;101739.44;7392195;19;20407;-60
2022/07/02 04:52:47;;;;;;;18.17;8.80;;;;;;;12.72;100.00;101731.91;7386637;19;20495;-60
2022/07/02 04:55:17;;;;;;;15.40;9.53;;;;;;;12.76;100.00;101729.53;7392833;19;20397;-60
2022/07/02 04:57:47;;;;;;;18.43;8.50;;;;;;;12.84;100.00;101722.13;7394203;19;20416;-60
2022/07/02 05:00:17;;;;;;;16.63;10.27;;;;;;;12.87;100.00;101719.69;7399222;19;20409;-60
2022/07/02 05:02:46;;;;;;;17.83;9.30;;;;;;;12.93;100.00;101726.88;7392354;19;20421;-60
2022/07/02 05:05:16;;;;;;;19.37;8.00;;;;;;;13.00;100.00;101717.66;7398628;19;20380;-60
2022/07/02 05:07:48;;;;;;;16.40;8.03;;;;;;;13.02;100.00;101722.09;7393023;19;20417;-60
2022/07/02 05:10:18;;;;;;;12.13;7.93;;;;;;;13.09;100.00;101711.22;7398833;19;20419;-60
2022/07/02 05:12:47;;;;;;;17.00;8.40;;;;;;;13.16;100.00;101708.91;7394484;19;20423;-60
2022/07/02 05:15:17;;;;;;;13.80;8.13;;;;;;;13.20;100.00;101710.84;7399958;19;20863;-60
2022/07/02 05:17:46;;;;;;;11.17;8.23;;;;;;;13.30;100.00;101706.97;7392620;19;20771;-60
2022/07/02 05:20:16;;;;;;;14.30;7.70;;;;;;;13.33;100.00;101700.22;7398734;19;20418;-60
2022/07/02 05:22:48;;;;;;;8.70;6.53;;;;;;;13.39;100.00;101698.72;7393751;19;20492;-60
2022/07/02 05:25:17;;;;;;;11.70;6.60;;;;;;;13.46;100.00;101706.88;7398329;19;20388;-60
2022/07/02 05:27:47;;;;;;;72.90;38.00;;;;;;;13.58;100.00;101709.13;7391466;19;20416;-60
2022/07/02 05:30:17;;;;;;;10.50;7.23;;;;;;;13.61;100.00;101710.97;7398118;19;20496;-60
2022/07/02 05:32:46;;;;;;;10.07;6.03;;;;;;;13.68;100.00;101699.19;7392660;19;20421;-61
2022/07/02 05:35:16;;;;;;;9.03;6.30;;;;;;;13.77;100.00;101705.66;7399212;19;20478;-60
2022/07/02 05:37:48;;;;;;;13.60;7.50;;;;;;;13.83;100.00;101707.63;7391405;19;20423;-60
2022/07/02 05:40:18;;;;;;;7.83;5.87;;;;;;;13.89;100.00;101704.38;7398002;19;20401;-60
2022/07/02 05:42:48;;;;;;;9.07;6.30;;;;;;;13.98;100.00;101701.31;7393251;19;20795;-60
2022/07/02 05:45:17;;;;;;;10.37;7.40;;;;;;;14.11;100.00;101697.53;7397861;19;20395;-60
2022/07/02 05:47:47;;;;;;;9.97;5.30;;;;;;;14.16;100.00;101694.31;7393873;19;20415;-60
2022/07/02 05:50:16;;;;;;;10.63;5.67;;;;;;;14.20;100.00;101704.81;7400685;19;20423;-60
2022/07/02 05:52:48;;;;;;;7.10;5.03;;;;;;;14.29;100.00;101711.28;7392027;19;20419;-60
2022/07/02 05:55:18;;;;;;;9.80;5.00;;;;;;;14.39;100.00;101709.06;7398578;19;20391;-60
2022/07/02 05:57:48;;;;;;;7.33;4.90;;;;;;;14.49;100.00;101702.53;7390654;19;20403;-61
2022/07/02 06:00:18;;;;;;;8.73;5.30;;;;;;;14.52;100.00;101713.06;7397176;19;20405;-60
2022/07/02 06:02:47;;;;;;;9.37;5.70;;;;;;;14.61;100.00;101705.63;7394502;19;20426;-60
2022/07/02 06:08:02;;;;;;;6.77;4.40;;;;;;;14.74;100.00;101708.72;7390353;19;21265;-60
2022/07/02 06:10:31;;;;;;;5.23;3.80;;;;;;;14.87;100.00;101723.13;7396898;19;20762;-60
2022/07/02 06:13:01;;;;;;;10.03;4.63;;;;;;;14.93;100.00;101731.16;7391269;19;20411;-60
2022/07/02 06:15:31;;;;;;;6.03;4.07;;;;;;;14.97;100.00;101723.53;7397776;19;20913;-60
2022/07/02 06:18:02;;;;;;;9.00;4.20;;;;;;;15.07;100.00;101744.69;7389353;19;20443;-60
2022/07/02 06:20:32;;;;;;;8.13;3.67;;;;;;;15.15;100.00;101755.38;7397938;19;20505;-60
2022/07/02 06:23:04;;;;;;;6.40;3.47;;;;;;;15.30;100.00;101752.47;7390724;19;20413;-60
2022/07/02 06:25:34;;;;;;;12.53;3.70;;;;;;;15.37;100.00;101765.78;7396672;19;20752;-61
2022/07/02 06:28:03;;;;;;;9.07;3.17;;;;;;;15.48;100.00;101768.78;7379270;19;20430;-60
2022/07/02 06:30:33;;;;;;;4.57;2.60;;;;;;;15.55;100.00;101769.00;7395847;19;20946;-60
2022/07/02 06:33:02;;;;;;;5.90;2.33;;;;;;;15.67;100.00;101790.28;7389837;19;20426;-60
2022/07/02 06:35:32;;;;;;;8.97;2.93;;;;;;;15.74;100.00;101807.88;7397173;19;20482;-60
2022/07/02 06:38:04;;;;;;;5.97;2.67;;;;;;;15.84;100.00;101819.50;7390036;19;20414;-60
2022/07/02 06:40:34;;;;;;;6.00;3.00;;;;;;;15.96;100.00;101813.91;7395724;19;20416;-60
2022/07/02 06:43:03;;;;;;;7.30;2.37;;;;;;;16.02;100.00;101824.56;7390471;19;20507;-60
2022/07/02 06:45:33;;;;;;;7.33;2.47;;;;;;;16.15;100.00;101838.00;7398755;19;20522;-60
2022/07/02 06:48:03;;;;;;;5.40;2.23;;;;;;;16.13;100.00;101856.16;7390567;19;20416;-61
2022/07/02 06:50:32;;;;;;;5.40;2.13;;;;;;;16.20;100.00;101863.38;7395553;19;20404;-60
2022/07/02 06:53:06;;;;;;;4.63;1.90;;;;;;;16.30;100.00;101872.38;7390350;19;20977;-60
2022/07/02 06:55:36;;;;;;;9.20;2.20;;;;;;;16.38;100.00;101876.97;7396581;19;20423;-61
2022/07/02 06:58:05;;;;;;;5.07;2.13;;;;;;;16.39;100.00;101896.97;7389746;19;20532;-60
2022/07/02 07:00:35;;;;;;;4.70;1.70;;;;;;;16.53;100.00;101906.19;7394447;19;20422;-61
2022/07/02 07:03:05;;;;;;;5.13;2.27;;;;;;;16.62;100.00;101912.56;7386637;19;20409;-61
2022/07/02 07:05:36;;;;;;;5.27;2.30;;;;;;;16.74;100.00;101926.00;7395798;19;20385;-60
2022/07/02 07:08:09;;;;;;;7.23;1.57;;;;;;;16.78;100.00;101933.13;7390177;19;21007;-60
2022/07/02 07:10:44;;;;;;;6.60;1.40;;;;;;;16.90;100.00;101955.19;7394495;19;20782;-60
2022/07/02 07:13:14;;;;;;;17.30;2.87;;;;;;;17.07;100.00;101948.88;7390206;19;20765;-62
2022/07/02 07:15:43;;;;;;;4.13;1.70;;;;;;;17.17;100.00;101951.81;7395850;19;20375;-61
2022/07/02 07:18:13;;;;;;;4.97;1.57;;;;;;;17.14;100.00;101974.31;7389294;19;20773;-60
2022/07/02 07:20:43;;;;;;;7.83;2.03;;;;;;;17.18;100.00;101977.03;7394318;19;20424;-61
2022/07/02 07:23:15;;;;;;;5.30;2.57;;;;;;;17.31;100.00;101970.50;7390113;19;20509;-60
2022/07/02 07:25:44;;;;;;;5.63;2.30;;;;;;;17.39;100.00;101972.53;7394838;19;20396;-61
2022/07/02 07:28:14;;;;;;;5.47;1.93;;;;;;;17.39;100.00;101972.53;7388461;19;20426;-60
2022/07/02 07:30:44;;;;;;;11.30;2.93;;;;;;;17.38;100.00;102002.06;7393247;19;20444;-61
2022/07/02 07:33:14;;;;;;;22.97;10.70;;;;;;;17.47;100.00;101992.75;7389918;19;20442;-60
2022/07/02 07:35:44;;;;;;;13.30;5.83;;;;;;;17.45;100.00;102011.00;7399615;19;20410;-61
2022/07/02 07:38:16;;;;;;;8.77;3.07;;;;;;;17.37;100.00;102018.56;7389494;19;20449;-60
2022/07/02 07:40:47;;;;;;;8.03;4.27;;;;;;;17.49;100.00;102006.75;7393688;19;20422;-61
2022/07/02 07:43:16;;;;;;;11.23;3.80;;;;;;;17.55;100.00;102004.34;7389489;19;20421;-61
2022/07/02 07:45:46;;;;;;;8.57;2.20;;;;;;;17.70;100.00;102010.91;7399096;19;20405;-61
2022/07/02 07:48:16;;;;;;;6.87;2.37;;;;;;;17.84;100.00;102009.59;7388703;19;20501;-61
2022/07/02 07:50:45;;;;;;;14.73;5.10;;;;;;;17.76;100.00;102037.19;7393318;19;20401;-62
2022/07/02 07:53:18;;;;;;;9.00;2.90;;;;;;;17.85;100.00;102047.06;7388460;19;20408;-60
2022/07/02 07:55:48;;;;;;;38.93;19.10;;;;;;;17.79;100.00;102050.38;7394462;19;20389;-61
2022/07/02 07:58:17;;;;;;;21.13;10.43;;;;;;;17.80;100.00;102075.63;7386780;19;20449;-61
2022/07/02 08:00:48;;;;;;;10.23;4.70;;;;;;;17.92;100.00;102073.41;7392441;19;20434;-61
2022/07/02 08:03:18;;;;;;;4.20;1.67;;;;;;;17.97;100.00;102083.09;7388429;19;20759;-61
2022/07/02 08:05:53;;;;;;;19.23;8.50;;;;;;;18.10;100.00;102074.84;7394010;19;20459;-61
2022/07/02 08:08:27;;;;;;;21.77;8.60;;;;;;;18.02;100.00;102079.81;7386366;19;20933;-60
2022/07/02 08:10:56;;;;;;;7.90;2.10;;;;;;;18.03;100.00;102076.34;7392519;19;20415;-61
2022/07/02 08:13:26;;;;;;;19.87;7.20;;;;;;;18.03;100.00;102080.69;7387473;19;20494;-60
2022/07/02 08:15:55;;;;;;;11.97;3.50;;;;;;;18.13;100.00;102079.28;7393509;19;20386;-60
2022/07/02 08:18:25;;;;;;;9.73;4.40;;;;;;;18.11;100.00;102076.66;7382927;19;20426;-61
2022/07/02 08:20:55;;;;;;;11.23;4.80;;;;;;;18.15;100.00;102094.16;7393351;19;20426;-60
2022/07/02 08:23:27;;;;;;;31.47;12.47;;;;;;;18.29;100.00;102085.88;7384642;19;20422;-61
2022/07/02 08:25:56;;;;;;;8.63;3.27;;;;;;;18.33;100.00;102095.56;7393276;19;20411;-61
2022/07/02 08:28:26;;;;;;;17.93;7.90;;;;;;;18.21;100.00;102120.47;7385306;19;20431;-61
2022/07/02 08:30:56;;;;;;;14.23;2.53;;;;;;;18.21;100.00;102120.47;7389957;19;20482;-61
2022/07/02 08:33:26;;;;;;;3.93;2.07;;;;;;;18.27;100.00;102124.13;7384374;19;20415;-61
2022/07/02 08:35:56;;;;;;;14.93;6.40;;;;;;;18.44;100.00;102117.69;7393144;19;20395;-60
2022/07/02 08:38:28;;;;;;;13.43;6.40;;;;;;;18.74;100.00;102106.41;7387692;19;20502;-60
2022/07/02 08:40:57;;;;;;;18.80;7.27;;;;;;;18.69;100.00;102147.19;7395683;19;21022;-61
2022/07/02 08:43:28;;;;;;;28.90;12.23;;;;;;;18.67;100.00;102188.06;7383995;19;20482;-61
2022/07/02 08:46:02;;;;;;;5.60;2.13;;;;;;;18.70;100.00;102184.66;7392804;19;20371;-60
2022/07/02 08:48:35;;;;;;;15.00;5.90;;;;;;;18.72;100.00;102160.34;7379347;19;20531;-61
2022/07/02 08:51:05;;;;;;;18.20;5.90;;;;;;;18.70;100.00;102229.09;7391414;19;20418;-61
2022/07/02 08:53:39;;;;;;;40.73;18.30;;;;;;;18.89;100.00;102370.06;7381267;19;20935;-60
2022/07/02 08:56:09;;;;;;;8.47;2.93;;;;;;;19.05;100.00;102119.50;7392378;19;20391;-61
2022/07/02 08:58:39;;;;;;;4.30;1.70;;;;;;;19.29;100.00;102022.47;7386073;19;20490;-61
2022/07/02 09:01:10;;;;;;;5.97;2.30;;;;;;;19.26;100.00;101971.81;7390894;19;20431;-61
2022/07/02 09:03:41;;;;;;;15.03;5.20;;;;;;;19.27;100.00;101888.16;7383203;19;20413;-60
2022/07/02 09:06:11;;;;;;;8.27;2.60;;;;;;;19.00;100.00;101863.06;7391996;19;20413;-61
2022/07/02 09:08:44;;;;;;;7.30;2.03;;;;;;;19.18;100.00;101856.56;7385707;19;21110;-61
2022/07/02 09:11:14;;;;;;;12.83;3.80;;;;;;;19.21;100.00;101826.94;7390798;19;20415;-61
2022/07/02 09:13:45;;;;;;;14.90;5.77;;;;;;;19.19;100.00;101785.06;7383673;19;20418;-61
2022/07/02 09:16:14;;;;;;;7.97;2.87;;;;;;;19.38;100.00;101772.41;7392099;19;20379;-60
2022/07/02 09:18:44;;;;;;;11.13;2.73;;;;;;;19.59;100.00;101790.28;7383116;19;20415;-62
2022/07/02 09:21:14;;;;;;;6.67;1.93;;;;;;;19.60;100.00;101796.38;7390337;19;20411;-62
2022/07/02 09:23:51;;;;;;;16.80;3.37;;;;;;;19.67;100.00;101787.81;7383316;19;20413;-61
2022/07/02 09:26:21;;;;;;;3.23;1.30;;;;;;;19.77;100.00;101779.28;7391367;19;20462;-61
2022/07/02 09:28:59;;;;;;;17.67;6.97;;;;;;;19.56;100.00;101767.56;7382454;19;20427;-61
2022/07/02 09:31:29;;;;;;;16.40;7.03;;;;;;;19.74;100.00;101771.38;7389822;19;20415;-61
2022/07/02 09:33:59;;;;;;;4.90;1.80;;;;;;;19.66;100.00;101754.63;7381510;19;20411;-60
2022/07/02 09:36:29;;;;;;;10.00;3.60;;;;;;;19.91;100.00;101726.31;7391565;19;20394;-61
2022/07/02 09:39:01;;;;;;;7.10;3.20;;;;;;;19.80;100.00;101713.88;7382674;19;20523;-61
2022/07/02 09:41:30;;;;;;;8.60;3.00;;;;;;;19.75;100.00;101660.59;7386134;19;20859;-60
2022/07/02 09:44:03;;;;;;;9.73;2.50;;;;;;;19.89;100.00;101610.19;7385357;19;20536;-61
2022/07/02 09:46:33;;;;;;;4.47;1.00;;;;;;;19.83;100.00;101576.91;7393897;19;20367;-61
2022/07/02 09:49:08;;;;;;;4.30;1.43;;;;;;;19.94;100.00;101558.78;7386004;19;20781;-61
2022/07/02 09:51:48;;;;;;;4.03;1.33;;;;;;;20.12;100.00;101521.53;7394148;19;20435;-61
2022/07/02 09:54:24;;;;;;;4.33;1.53;;;;;;;20.04;100.00;101537.13;7395296;19;20513;-60
2022/07/02 09:56:55;;;;;;;4.90;1.50;;;;;;;20.14;100.00;101503.22;7384746;19;20383;-60
2022/07/02 09:59:25;;;;;;;6.40;2.10;;;;;;;20.32;100.00;101403.03;7395111;19;20402;-61
2022/07/02 10:01:54;;;;;;;10.10;1.77;;;;;;;20.55;100.00;101386.69;7386557;19;20442;-61
2022/07/02 10:04:31;;;;;;;4.47;1.87;;;;;;;19.93;100.00;101245.41;7395564;19;20392;-61
2022/07/02 10:07:01;;;;;;;5.27;1.20;;;;;;;20.00;100.00;101205.38;7388678;19;20913;-61
2022/07/02 10:09:33;;;;;;;4.47;1.20;;;;;;;19.83;100.00;101205.16;7394911;19;20391;-61
2022/07/02 10:12:02;;;;;;;4.87;1.10;;;;;;;19.72;100.00;101244.31;7387869;19;20407;-60
2022/07/02 10:14:34;;;;;;;6.43;1.30;;;;;;;20.06;100.00;101284.00;7395903;19;20398;-62
2022/07/02 10:17:05;;;;;;;5.00;1.27;;;;;;;20.09;100.00;101195.00;7388817;19;20419;-61
2022/07/02 10:19:35;;;;;;;9.97;2.60;;;;;;;20.33;100.00;101083.41;7397083;19;20388;-61
2022/07/02 10:22:05;;;;;;;5.83;2.03;;;;;;;20.67;100.00;101004.09;7387783;19;20428;-61
2022/07/02 10:24:38;;;;;;;3.30;1.30;;;;;;;20.63;100.00;100940.28;7396135;19;20388;-60
2022/07/02 10:27:08;;;;;;;4.67;1.40;;;;;;;20.76;100.00;100919.34;7388479;19;20411;-61
2022/07/02 10:29:38;;;;;;;6.60;2.20;;;;;;;20.17;100.00;100893.88;7395533;19;20406;-61
2022/07/02 10:32:17;;;;;;;3.73;1.00;;;;;;;20.31;100.00;100886.03;7383302;19;20413;-60
2022/07/02 10:34:54;;;;;;;9.90;1.47;;;;;;;20.62;100.00;100867.78;7396137;19;20410;-60
2022/07/02 10:37:24;;;;;;;5.30;1.70;;;;;;;20.81;100.00;100859.94;7387315;19;20399;-61
2022/07/02 10:40:05;;;;;;;4.93;1.03;;;;;;;20.74;100.00;100850.31;7394974;19;20737;-61
2022/07/02 10:42:41;;;;;;;4.93;1.30;;;;;;;21.03;100.00;100849.50;7387238;19;20411;-61
2022/07/02 10:45:12;;;;;;;4.60;1.43;;;;;;;21.19;100.00;100850.38;7396443;19;20388;-61
2022/07/02 10:47:55;;;;;;;8.27;2.23;;;;;;;20.82;100.00;100864.31;7387722;19;20442;-61
2022/07/02 10:50:29;;;;;;;5.80;1.30;;;;;;;20.70;100.00;100874.78;7395033;19;20395;-61
2022/07/02 10:52:59;;;;;;;2.57;0.90;;;;;;;21.21;100.00;100832.88;7388150;19;20425;-61
2022/07/02 10:55:32;;;;;;;5.40;1.50;;;;;;;21.31;100.00;100866.09;7395333;19;20734;-61
2022/07/02 10:58:02;;;;;;;3.70;1.20;;;;;;;21.14;100.00;100899.34;7386052;19;20967;-61
2022/07/02 11:00:33;;;;;;;4.33;1.30;;;;;;;21.62;100.00;100911.53;7393744;19;20415;-61
2022/07/02 11:03:14;;;;;;;5.47;1.60;;;;;;;21.33;100.00;100999.88;7387710;19;20410;-60
2022/07/02 11:05:59;;;;;;;5.73;1.10;;;;;;;21.58;100.00;101015.66;7395344;19;20387;-61
2022/07/02 11:08:53;;;;;;;5.00;1.17;;;;;;;21.52;100.00;101052.38;7386008;19;20435;-61
2022/07/02 11:11:45;;;;;;;3.77;1.10;;;;;;;21.72;100.00;101031.44;7393770;19;20430;-61
2022/07/02 11:14:17;;;;;;;3.37;1.00;;;;;;;21.51;100.00;101003.41;7399430;19;20445;-62
2022/07/02 11:16:49;;;;;;;6.93;1.40;;;;;;;21.55;100.00;101068.16;7391064;19;20524;-62
2022/07/02 11:19:20;;;;;;;3.80;1.00;;;;;;;22.02;100.00;101044.53;7392786;19;20423;-62
2022/07/02 11:21:51;;;;;;;4.17;1.40;;;;;;;21.47;100.00;101138.13;7387480;19;20407;-62
2022/07/02 11:24:28;;;;;;;3.37;1.10;;;;;;;21.17;100.00;101119.66;7395053;19;20383;-62
2022/07/02 11:27:02;;;;;;;4.43;1.00;;;;;;;21.20;100.00;101085.59;7385685;19;20528;-62
2022/07/02 11:29:31;;;;;;;3.17;1.07;;;;;;;21.56;100.00;101114.53;7392804;19;20411;-62
2022/07/02 11:32:01;;;;;;;3.50;1.20;;;;;;;21.55;100.00;101173.16;7386250;19;20428;-62